Time,TemperatureF,DewpointF,PressureIn,WindDirection,WindDirectionDegrees,WindSpeedMPH,WindSpeedGustMPH,Humidity,HourlyPrecipIn,Conditions,Clouds,dailyrainin,SoftwareType,DateUTC
2013-08-17 00:04:00,58.6,56.3,30.01,South,185,9.0,14.0,92,0.00,,,0.00,meteohub,2013-08-17 07:04:00,
2013-08-17 00:09:00,58.5,56.1,30.01,SSW,197,10.0,16.0,92,0.00,,,0.00,meteohub,2013-08-17 07:09:00,
2013-08-17 00:14:00,58.5,56.5,30.01,SSE,160,10.0,16.0,93,0.00,,,0.00,meteohub,2013-08-17 07:14:00,
2013-08-17 00:19:00,58.6,56.7,30.01,SSE,160,6.0,16.0,93,0.00,,,0.00,meteohub,2013-08-17 07:19:00,
2013-08-17 00:24:00,58.8,56.5,30.01,South,174,5.0,15.0,92,0.00,,,0.00,meteohub,2013-08-17 07:24:00,
2013-08-17 00:29:00,58.8,56.5,30.02,SSW,193,9.0,14.0,92,0.00,,,0.00,meteohub,2013-08-17 07:29:00,
2013-08-17 00:34:00,58.8,56.5,30.01,South,183,9.0,13.0,92,0.00,,,0.00,meteohub,2013-08-17 07:34:00,
2013-08-17 00:39:00,58.8,56.5,30.01,SSE,168,8.0,14.0,92,0.00,,,0.00,meteohub,2013-08-17 07:39:00,
2013-08-17 00:44:00,58.8,56.5,30.01,SSE,168,8.0,14.0,92,0.00,,,0.00,meteohub,2013-08-17 07:44:00,
2013-08-17 00:49:00,58.8,56.5,30.01,SSW,196,11.0,12.0,92,0.00,,,0.00,meteohub,2013-08-17 07:49:00,
2013-08-17 00:54:00,58.8,56.5,30.01,South,179,6.0,15.0,92,0.00,,,0.00,meteohub,2013-08-17 07:54:00,
2013-08-17 01:00:00,58.8,56.5,30.01,South,172,6.0,15.0,92,0.00,,,0.00,meteohub,2013-08-17 08:00:00,
2013-08-17 01:05:00,58.8,56.5,30.01,SSE,160,7.0,15.0,92,0.00,,,0.00,meteohub,2013-08-17 08:05:00,
2013-08-17 01:10:00,59.2,56.8,30.01,SSE,160,8.0,14.0,92,0.00,,,0.00,meteohub,2013-08-17 08:10:00,
2013-08-17 01:15:00,59.2,56.5,30.01,SSE,160,9.0,14.0,91,0.00,,,0.00,meteohub,2013-08-17 08:15:00,
2013-08-17 01:20:00,59.2,56.5,30.01,SSE,159,9.0,14.0,91,0.00,,,0.00,meteohub,2013-08-17 08:20:00,
2013-08-17 01:25:00,59.4,56.7,30.01,South,185,13.0,14.0,91,0.00,,,0.00,meteohub,2013-08-17 08:25:00,
2013-08-17 01:30:00,59.2,56.5,30.01,SSE,159,10.0,14.0,91,0.00,,,0.00,meteohub,2013-08-17 08:30:00,
2013-08-17 01:35:00,59.4,56.7,30.01,SE,141,6.0,14.0,91,0.00,,,0.00,meteohub,2013-08-17 08:35:00,
2013-08-17 01:40:00,59.4,56.7,30.01,South,178,8.0,14.0,91,0.00,,,0.00,meteohub,2013-08-17 08:40:00,
2013-08-17 01:45:00,59.4,56.7,30.01,South,173,7.0,14.0,91,0.00,,,0.00,meteohub,2013-08-17 08:45:00,
2013-08-17 01:50:00,59.4,56.7,30.01,SSE,161,9.0,14.0,91,0.00,,,0.00,meteohub,2013-08-17 08:50:00,
2013-08-17 01:55:00,59.4,56.7,30.00,SSE,158,12.0,14.0,91,0.00,,,0.00,meteohub,2013-08-17 08:55:00,
2013-08-17 02:00:00,59.4,56.7,30.01,SSE,164,12.0,14.0,91,0.00,,,0.00,meteohub,2013-08-17 09:00:00,
2013-08-17 02:05:00,59.4,56.7,30.01,South,176,7.0,15.0,91,0.00,,,0.00,meteohub,2013-08-17 09:05:00,
2013-08-17 02:10:00,59.2,56.5,30.00,SSE,160,11.0,15.0,91,0.00,,,0.00,meteohub,2013-08-17 09:10:00,
2013-08-17 02:15:00,59.2,56.5,30.00,SSE,160,10.0,15.0,91,0.00,,,0.00,meteohub,2013-08-17 09:15:00,
2013-08-17 02:20:00,59.2,56.5,30.00,SSE,160,7.0,14.0,91,0.00,,,0.00,meteohub,2013-08-17 09:20:00,
2013-08-17 02:25:00,59.2,56.5,30.00,South,177,9.0,14.0,91,0.00,,,0.00,meteohub,2013-08-17 09:25:00,
2013-08-17 02:30:00,59.0,56.3,30.00,South,172,7.0,14.0,91,0.00,,,0.00,meteohub,2013-08-17 09:30:00,
2013-08-17 02:35:00,59.0,56.7,29.99,SSE,162,9.0,12.0,92,0.00,,,0.00,meteohub,2013-08-17 09:35:00,
2013-08-17 02:40:00,59.0,56.7,30.00,South,179,4.0,11.0,92,0.00,,,0.00,meteohub,2013-08-17 09:40:00,
2013-08-17 02:45:00,59.0,56.7,29.99,South,174,5.0,11.0,92,0.00,,,0.00,meteohub,2013-08-17 09:45:00,
2013-08-17 02:50:00,59.0,56.3,29.99,South,181,7.0,11.0,91,0.00,,,0.00,meteohub,2013-08-17 09:50:00,
2013-08-17 02:55:00,59.0,56.3,29.99,SSE,166,7.0,10.0,91,0.00,,,0.00,meteohub,2013-08-17 09:55:00,
2013-08-17 03:00:00,59.2,56.5,29.99,South,170,8.0,15.0,91,0.00,,,0.00,meteohub,2013-08-17 10:00:00,
2013-08-17 03:05:00,59.2,56.5,29.99,SSE,165,8.0,15.0,91,0.00,,,0.00,meteohub,2013-08-17 10:05:00,
2013-08-17 03:10:00,59.4,56.7,29.99,South,182,7.0,15.0,91,0.00,,,0.00,meteohub,2013-08-17 10:10:00,
2013-08-17 03:15:00,59.4,56.7,29.99,South,185,5.0,12.0,91,0.00,,,0.00,meteohub,2013-08-17 10:15:00,
2013-08-17 03:20:00,59.4,56.7,29.99,South,189,4.0,12.0,91,0.00,,,0.00,meteohub,2013-08-17 10:20:00,
2013-08-17 03:25:00,59.4,56.7,30.00,North,359,7.0,13.0,91,0.00,,,0.00,meteohub,2013-08-17 10:25:00,
2013-08-17 03:30:00,59.2,56.5,30.00,South,183,6.0,13.0,91,0.00,,,0.00,meteohub,2013-08-17 10:30:00,
2013-08-17 03:35:00,58.8,56.1,30.00,SSW,203,7.0,13.0,91,0.00,,,0.00,meteohub,2013-08-17 10:35:00,
2013-08-17 03:40:00,58.6,55.8,30.00,SSW,202,6.0,12.0,90,0.00,,,0.00,meteohub,2013-08-17 10:40:00,
2013-08-17 03:45:00,58.6,55.8,29.99,SSW,201,5.0,11.0,90,0.00,,,0.00,meteohub,2013-08-17 10:45:00,
2013-08-17 03:50:00,58.8,56.1,30.00,South,188,6.0,11.0,91,0.00,,,0.00,meteohub,2013-08-17 10:50:00,
2013-08-17 03:55:00,58.8,56.1,29.99,South,177,5.0,9.0,91,0.00,,,0.00,meteohub,2013-08-17 10:55:00,
2013-08-17 04:01:00,59.0,56.3,29.99,South,177,6.0,9.0,91,0.00,,,0.00,meteohub,2013-08-17 11:01:00,
2013-08-17 04:06:00,59.4,56.7,29.99,South,180,5.0,10.0,91,0.00,,,0.00,meteohub,2013-08-17 11:06:00,
2013-08-17 04:11:00,59.4,56.7,29.99,South,183,8.0,10.0,91,0.00,,,0.00,meteohub,2013-08-17 11:11:00,
2013-08-17 04:16:00,59.5,56.8,29.99,South,187,3.0,10.0,91,0.00,,,0.00,meteohub,2013-08-17 11:16:00,
2013-08-17 04:21:00,59.5,56.8,29.99,SSW,193,7.0,10.0,91,0.00,,,0.00,meteohub,2013-08-17 11:21:00,
2013-08-17 04:26:00,59.5,56.7,29.99,SSW,202,3.0,11.0,90,0.00,,,0.00,meteohub,2013-08-17 11:26:00,
2013-08-17 04:31:00,59.5,56.8,29.99,South,188,5.0,11.0,91,0.00,,,0.00,meteohub,2013-08-17 11:31:00,
2013-08-17 04:36:00,59.5,56.8,29.99,South,176,10.0,10.0,91,0.00,,,0.00,meteohub,2013-08-17 11:36:00,
2013-08-17 04:41:00,59.7,57.0,29.99,South,185,4.0,10.0,91,0.00,,,0.00,meteohub,2013-08-17 11:41:00,
2013-08-17 04:46:00,59.7,57.0,29.99,South,179,6.0,10.0,91,0.00,,,0.00,meteohub,2013-08-17 11:46:00,
2013-08-17 04:51:00,59.7,57.0,29.99,South,177,7.0,10.0,91,0.00,,,0.00,meteohub,2013-08-17 11:51:00,
2013-08-17 04:56:00,59.7,56.8,29.99,South,185,9.0,11.0,90,0.00,,,0.00,meteohub,2013-08-17 11:56:00,
2013-08-17 05:01:00,59.7,56.8,29.99,South,169,8.0,11.0,90,0.00,,,0.00,meteohub,2013-08-17 12:01:00,
2013-08-17 05:06:00,59.7,56.8,29.99,SSE,168,6.0,11.0,90,0.00,,,0.00,meteohub,2013-08-17 12:06:00,
2013-08-17 05:11:00,59.7,56.8,29.99,SSW,192,3.0,13.0,90,0.00,,,0.00,meteohub,2013-08-17 12:11:00,
2013-08-17 05:16:00,59.5,56.7,29.99,SSW,192,5.0,13.0,90,0.00,,,0.00,meteohub,2013-08-17 12:16:00,
2013-08-17 05:21:00,59.5,56.3,29.99,SSW,202,7.0,13.0,89,0.00,,,0.00,meteohub,2013-08-17 12:21:00,
2013-08-17 05:26:00,59.4,56.1,30.00,SSW,196,7.0,12.0,89,0.00,,,0.00,meteohub,2013-08-17 12:26:00,
2013-08-17 05:32:00,59.0,56.1,30.00,SSW,193,5.0,12.0,90,0.00,,,0.00,meteohub,2013-08-17 12:32:00,
2013-08-17 05:37:00,58.8,55.9,30.00,SSW,201,8.0,12.0,90,0.00,,,0.00,meteohub,2013-08-17 12:37:00,
2013-08-17 05:42:00,58.8,55.9,30.00,SSW,195,7.0,11.0,90,0.00,,,0.00,meteohub,2013-08-17 12:42:00,
2013-08-17 05:47:00,58.8,56.1,30.00,South,189,10.0,11.0,91,0.00,,,0.00,meteohub,2013-08-17 12:47:00,
2013-08-17 05:52:00,58.6,55.9,30.00,SSW,201,7.0,12.0,91,0.00,,,0.00,meteohub,2013-08-17 12:52:00,
2013-08-17 05:57:00,58.6,55.9,30.00,SSW,200,5.0,12.0,91,0.00,,,0.00,meteohub,2013-08-17 12:57:00,
2013-08-17 06:02:00,58.6,55.9,30.00,South,187,7.0,12.0,91,0.00,,,0.00,meteohub,2013-08-17 13:02:00,
2013-08-17 06:07:00,58.6,55.9,30.00,South,174,6.0,11.0,91,0.00,,,0.00,meteohub,2013-08-17 13:07:00,
2013-08-17 06:12:00,58.6,55.9,30.00,South,185,6.0,11.0,91,0.00,,,0.00,meteohub,2013-08-17 13:12:00,
2013-08-17 06:17:00,58.6,55.9,30.01,SSW,199,8.0,10.0,91,0.00,,,0.00,meteohub,2013-08-17 13:17:00,
2013-08-17 06:22:00,58.6,55.9,30.00,SSW,204,7.0,12.0,91,0.00,,,0.00,meteohub,2013-08-17 13:22:00,
2013-08-17 06:27:00,58.6,56.3,30.00,SSW,192,5.0,13.0,92,0.00,,,0.00,meteohub,2013-08-17 13:27:00,
2013-08-17 06:32:00,58.5,56.1,30.01,SSW,197,8.0,13.0,92,0.00,,,0.00,meteohub,2013-08-17 13:32:00,
2013-08-17 06:37:00,58.5,56.1,30.01,SSW,204,8.0,13.0,92,0.00,,,0.00,meteohub,2013-08-17 13:37:00,
2013-08-17 06:42:00,58.5,56.1,30.01,SSW,194,6.0,12.0,92,0.00,,,0.00,meteohub,2013-08-17 13:42:00,
2013-08-17 06:47:00,58.3,55.9,30.01,South,188,7.0,12.0,92,0.00,,,0.00,meteohub,2013-08-17 13:47:00,
2013-08-17 06:52:00,58.3,55.9,30.01,SSW,197,6.0,12.0,92,0.00,,,0.00,meteohub,2013-08-17 13:52:00,
2013-08-17 06:57:00,58.3,56.3,30.01,South,177,11.0,13.0,93,0.00,,,0.00,meteohub,2013-08-17 13:57:00,
2013-08-17 07:02:00,58.3,56.3,30.01,South,175,4.0,13.0,93,0.00,,,0.00,meteohub,2013-08-17 14:02:00,
2013-08-17 07:07:00,58.3,56.3,30.01,South,185,5.0,13.0,93,0.00,,,0.00,meteohub,2013-08-17 14:07:00,
2013-08-17 07:12:00,58.3,56.3,30.01,South,176,9.0,13.0,93,0.00,,,0.00,meteohub,2013-08-17 14:12:00,
2013-08-17 07:17:00,58.3,56.3,30.01,SSW,197,7.0,13.0,93,0.00,,,0.00,meteohub,2013-08-17 14:17:00,
2013-08-17 07:22:00,58.3,56.3,30.02,SSW,201,7.0,13.0,93,0.00,,,0.00,meteohub,2013-08-17 14:22:00,
2013-08-17 07:27:00,58.3,56.3,30.02,SSW,199,5.0,13.0,93,0.00,,,0.00,meteohub,2013-08-17 14:27:00,
2013-08-17 07:32:00,58.3,56.3,30.02,South,184,9.0,13.0,93,0.00,,,0.00,meteohub,2013-08-17 14:32:00,
2013-08-17 07:37:00,58.3,56.3,30.02,SSW,196,7.0,13.0,93,0.00,,,0.00,meteohub,2013-08-17 14:37:00,
2013-08-17 07:42:00,58.3,56.3,30.02,SSW,204,6.0,15.0,93,0.00,,,0.00,meteohub,2013-08-17 14:42:00,
2013-08-17 07:47:00,58.1,56.1,30.02,SSW,201,9.0,15.0,93,0.00,,,0.00,meteohub,2013-08-17 14:47:00,
2013-08-17 07:52:00,58.1,56.1,30.02,South,181,7.0,15.0,93,0.00,,,0.00,meteohub,2013-08-17 14:52:00,
2013-08-17 07:57:00,58.3,56.3,30.02,South,187,9.0,13.0,93,0.00,,,0.00,meteohub,2013-08-17 14:57:00,
2013-08-17 08:02:00,58.5,56.5,30.02,SSW,197,10.0,13.0,93,0.00,,,0.00,meteohub,2013-08-17 15:02:00,
2013-08-17 08:07:00,58.5,56.5,30.02,SSW,206,7.0,14.0,93,0.00,,,0.00,meteohub,2013-08-17 15:07:00,
2013-08-17 08:12:00,58.5,56.1,30.02,SSW,206,11.0,14.0,92,0.00,,,0.00,meteohub,2013-08-17 15:12:00,
2013-08-17 08:17:00,58.5,56.1,30.03,South,181,6.0,12.0,92,0.00,,,0.00,meteohub,2013-08-17 15:17:00,
2013-08-17 08:22:00,58.6,56.3,30.03,SSW,204,8.0,14.0,92,0.00,,,0.00,meteohub,2013-08-17 15:22:00,
2013-08-17 08:27:00,58.8,56.5,30.03,SW,218,4.0,15.0,92,0.00,,,0.00,meteohub,2013-08-17 15:27:00,
2013-08-17 08:32:00,59.2,56.8,30.03,South,189,8.0,15.0,92,0.00,,,0.00,meteohub,2013-08-17 15:32:00,
2013-08-17 08:38:00,59.4,56.7,30.02,SSW,198,10.0,15.0,91,0.00,,,0.00,meteohub,2013-08-17 15:38:00,
2013-08-17 08:43:00,59.4,56.7,30.03,SSW,212,7.0,13.0,91,0.00,,,0.00,meteohub,2013-08-17 15:43:00,
2013-08-17 08:48:00,59.4,56.5,30.03,SSW,198,7.0,12.0,90,0.00,,,0.00,meteohub,2013-08-17 15:48:00,
2013-08-17 08:53:00,59.5,56.7,30.03,SSW,206,12.0,16.0,90,0.00,,,0.00,meteohub,2013-08-17 15:53:00,
2013-08-17 08:58:00,59.7,56.8,30.03,SSW,196,7.0,16.0,90,0.00,,,0.00,meteohub,2013-08-17 15:58:00,
2013-08-17 09:03:00,60.1,56.8,30.03,SSW,210,8.0,16.0,89,0.00,,,0.00,meteohub,2013-08-17 16:03:00,
2013-08-17 09:08:00,60.1,56.5,30.03,SSW,199,6.0,15.0,88,0.00,,,0.00,meteohub,2013-08-17 16:08:00,
2013-08-17 09:13:00,59.7,56.5,30.03,SSW,195,7.0,15.0,89,0.00,,,0.00,meteohub,2013-08-17 16:13:00,
2013-08-17 09:18:00,59.5,56.3,30.03,SSW,203,7.0,15.0,89,0.00,,,0.00,meteohub,2013-08-17 16:18:00,
2013-08-17 09:23:00,59.4,56.5,30.02,SW,218,11.0,14.0,90,0.00,,,0.00,meteohub,2013-08-17 16:23:00,
2013-08-17 09:28:00,59.2,56.3,30.02,SSW,193,10.0,14.0,90,0.00,,,0.00,meteohub,2013-08-17 16:28:00,
2013-08-17 09:33:00,59.2,56.3,30.02,SSW,205,8.0,13.0,90,0.00,,,0.00,meteohub,2013-08-17 16:33:00,
2013-08-17 09:38:00,59.2,56.5,30.03,SW,220,12.0,13.0,91,0.00,,,0.00,meteohub,2013-08-17 16:38:00,
2013-08-17 09:43:00,59.5,56.7,30.04,South,190,5.0,13.0,90,0.00,,,0.00,meteohub,2013-08-17 16:43:00,
2013-08-17 09:48:00,60.3,57.4,30.04,South,191,6.0,17.0,90,0.00,,,0.00,meteohub,2013-08-17 16:48:00,
2013-08-17 09:53:00,60.8,57.2,30.04,South,191,8.0,17.0,88,0.00,,,0.00,meteohub,2013-08-17 16:53:00,
2013-08-17 09:58:00,61.0,57.4,30.03,SSW,198,6.0,17.0,88,0.00,,,0.00,meteohub,2013-08-17 16:58:00,
2013-08-17 10:03:00,61.2,57.2,30.03,SSW,210,7.0,15.0,87,0.00,,,0.00,meteohub,2013-08-17 17:03:00,
2013-08-17 10:08:00,61.3,57.4,30.03,SW,216,7.0,15.0,87,0.00,,,0.00,meteohub,2013-08-17 17:08:00,
2013-08-17 10:13:00,61.2,57.2,30.02,SSW,201,7.0,14.0,87,0.00,,,0.00,meteohub,2013-08-17 17:13:00,
2013-08-17 10:18:00,61.2,57.2,30.02,SSW,204,9.0,13.0,87,0.00,,,0.00,meteohub,2013-08-17 17:18:00,
2013-08-17 10:23:00,61.5,57.4,30.02,SSW,197,7.0,12.0,86,0.00,,,0.00,meteohub,2013-08-17 17:23:00,
2013-08-17 10:28:00,61.2,57.2,30.02,SW,226,11.0,15.0,87,0.00,,,0.00,meteohub,2013-08-17 17:28:00,
2013-08-17 10:33:00,61.7,57.4,30.02,SW,228,13.0,15.0,86,0.00,,,0.00,meteohub,2013-08-17 17:33:00,
2013-08-17 10:38:00,61.5,57.4,30.02,SSW,211,14.0,16.0,86,0.00,,,0.00,meteohub,2013-08-17 17:38:00,
2013-08-17 10:43:00,61.5,57.4,30.02,SW,216,14.0,16.0,86,0.00,,,0.00,meteohub,2013-08-17 17:43:00,
2013-08-17 10:48:00,61.3,57.2,30.03,South,186,9.0,16.0,86,0.00,,,0.00,meteohub,2013-08-17 17:48:00,
2013-08-17 10:53:00,61.0,56.8,30.03,South,170,10.0,18.0,86,0.00,,,0.00,meteohub,2013-08-17 17:53:00,
2013-08-17 10:58:00,61.2,57.0,30.03,SSW,197,12.0,18.0,86,0.00,,,0.00,meteohub,2013-08-17 17:58:00,
2013-08-17 11:03:00,61.2,57.2,30.03,SW,227,17.0,18.0,87,0.00,,,0.00,meteohub,2013-08-17 18:03:00,
2013-08-17 11:08:00,60.8,56.7,30.03,SSW,211,8.0,18.0,86,0.00,,,0.00,meteohub,2013-08-17 18:08:00,
2013-08-17 11:13:00,61.3,57.2,30.02,SW,222,9.0,18.0,86,0.00,,,0.00,meteohub,2013-08-17 18:13:00,
2013-08-17 11:18:00,62.1,57.6,30.02,SSW,200,9.0,18.0,85,0.00,,,0.00,meteohub,2013-08-17 18:18:00,
2013-08-17 11:23:00,61.9,57.0,30.03,SSW,194,12.0,18.0,84,0.00,,,0.00,meteohub,2013-08-17 18:23:00,
2013-08-17 11:28:00,61.3,57.4,30.03,South,186,15.0,17.0,87,0.00,,,0.00,meteohub,2013-08-17 18:28:00,
2013-08-17 11:33:00,61.5,57.6,30.02,SSW,212,10.0,17.0,87,0.00,,,0.00,meteohub,2013-08-17 18:33:00,
2013-08-17 11:38:00,61.7,57.4,30.02,SSW,212,6.0,17.0,86,0.00,,,0.00,meteohub,2013-08-17 18:38:00,
2013-08-17 11:44:00,62.1,57.7,30.02,SSW,194,7.0,17.0,86,0.00,,,0.00,meteohub,2013-08-17 18:44:00,
2013-08-17 11:49:00,62.1,57.6,30.02,SSW,207,13.0,17.0,85,0.00,,,0.00,meteohub,2013-08-17 18:49:00,
2013-08-17 11:54:00,61.9,57.6,30.02,SSW,206,17.0,17.0,86,0.00,,,0.00,meteohub,2013-08-17 18:54:00,
2013-08-17 11:59:00,61.3,57.2,30.03,South,189,13.0,15.0,86,0.00,,,0.00,meteohub,2013-08-17 18:59:00,
2013-08-17 12:04:00,61.3,57.4,30.02,South,187,8.0,19.0,87,0.00,,,0.00,meteohub,2013-08-17 19:04:00,
2013-08-17 12:09:00,61.3,57.4,30.02,South,189,7.0,19.0,87,0.00,,,0.00,meteohub,2013-08-17 19:09:00,
2013-08-17 12:14:00,61.9,57.6,30.02,South,189,13.0,19.0,86,0.00,,,0.00,meteohub,2013-08-17 19:14:00,
2013-08-17 12:19:00,62.1,57.7,30.02,SSW,193,7.0,16.0,86,0.00,,,0.00,meteohub,2013-08-17 19:19:00,
2013-08-17 12:24:00,62.1,57.7,30.01,SSW,193,11.0,16.0,86,0.00,,,0.00,meteohub,2013-08-17 19:24:00,
2013-08-17 12:29:00,62.2,57.7,30.01,South,183,7.0,16.0,85,0.00,,,0.00,meteohub,2013-08-17 19:29:00,
2013-08-17 12:34:00,62.4,57.9,30.00,SSW,192,9.0,15.0,85,0.00,,,0.00,meteohub,2013-08-17 19:34:00,
2013-08-17 12:39:00,62.6,58.1,30.00,South,172,8.0,15.0,85,0.00,,,0.00,meteohub,2013-08-17 19:39:00,
2013-08-17 12:44:00,62.8,57.9,30.01,SSW,196,8.0,14.0,84,0.00,,,0.00,meteohub,2013-08-17 19:44:00,
2013-08-17 12:49:00,62.8,57.9,30.01,SSW,192,7.0,14.0,84,0.00,,,0.00,meteohub,2013-08-17 19:49:00,
2013-08-17 12:54:00,63.0,58.1,30.00,SSW,196,5.0,16.0,84,0.00,,,0.00,meteohub,2013-08-17 19:54:00,
2013-08-17 12:59:00,63.1,57.9,30.00,SSW,212,7.0,16.0,83,0.00,,,0.00,meteohub,2013-08-17 19:59:00,
2013-08-17 13:04:00,63.0,57.4,29.99,SSW,205,11.0,16.0,82,0.00,,,0.00,meteohub,2013-08-17 20:04:00,
2013-08-17 13:09:00,62.4,57.6,30.00,SSW,192,12.0,15.0,84,0.00,,,0.00,meteohub,2013-08-17 20:09:00,
2013-08-17 13:14:00,62.6,57.7,29.99,SSW,195,10.0,15.0,84,0.00,,,0.00,meteohub,2013-08-17 20:14:00,
2013-08-17 13:19:00,63.0,58.1,30.00,South,191,11.0,18.0,84,0.00,,,0.00,meteohub,2013-08-17 20:19:00,
2013-08-17 13:24:00,63.1,57.9,30.00,SSW,213,16.0,18.0,83,0.00,,,0.00,meteohub,2013-08-17 20:24:00,
2013-08-17 13:29:00,63.5,58.6,30.00,South,174,16.0,17.0,84,0.00,,,0.00,meteohub,2013-08-17 20:29:00,
2013-08-17 13:34:00,64.2,58.6,30.00,SSW,208,12.0,17.0,82,0.00,,,0.00,meteohub,2013-08-17 20:34:00,
2013-08-17 13:39:00,64.2,58.6,30.00,SSW,194,7.0,17.0,82,0.00,,,0.00,meteohub,2013-08-17 20:39:00,
2013-08-17 13:44:00,64.0,58.1,30.00,SSW,197,12.0,17.0,81,0.00,,,0.00,meteohub,2013-08-17 20:44:00,
2013-08-17 13:49:00,63.7,58.5,29.99,South,183,6.0,17.0,83,0.00,,,0.00,meteohub,2013-08-17 20:49:00,
2013-08-17 13:54:00,64.0,58.8,29.99,SW,214,10.0,17.0,83,0.00,,,0.00,meteohub,2013-08-17 20:54:00,
2013-08-17 13:59:00,64.0,58.8,29.99,South,189,12.0,17.0,83,0.00,,,0.00,meteohub,2013-08-17 20:59:00,
2013-08-17 14:04:00,64.4,59.2,29.99,SSW,200,11.0,15.0,83,0.00,,,0.00,meteohub,2013-08-17 21:04:00,
2013-08-17 14:09:00,64.8,59.2,29.99,SSW,196,8.0,16.0,82,0.00,,,0.00,meteohub,2013-08-17 21:09:00,
2013-08-17 14:14:00,65.7,60.4,29.99,South,185,12.0,16.0,83,0.00,,,0.00,meteohub,2013-08-17 21:14:00,
2013-08-17 14:19:00,66.2,59.2,29.98,South,183,4.0,16.0,78,0.00,,,0.00,meteohub,2013-08-17 21:19:00,
2013-08-17 14:24:00,67.1,59.7,29.99,SSW,203,8.0,15.0,77,0.00,,,0.00,meteohub,2013-08-17 21:24:00,
2013-08-17 14:29:00,66.4,59.4,29.99,South,188,8.0,13.0,78,0.00,,,0.00,meteohub,2013-08-17 21:29:00,
2013-08-17 14:34:00,66.6,59.5,29.98,South,188,11.0,13.0,78,0.00,,,0.00,meteohub,2013-08-17 21:34:00,
2013-08-17 14:39:00,66.2,59.2,29.98,SSE,162,10.0,13.0,78,0.00,,,0.00,meteohub,2013-08-17 21:39:00,
2013-08-17 14:44:00,66.7,59.0,29.98,SSE,162,12.0,15.0,76,0.00,,,0.00,meteohub,2013-08-17 21:44:00,
2013-08-17 14:49:00,67.5,60.1,29.97,SSW,208,8.0,15.0,77,0.00,,,0.00,meteohub,2013-08-17 21:49:00,
2013-08-17 14:55:00,67.5,60.1,29.97,SSW,196,5.0,14.0,77,0.00,,,0.00,meteohub,2013-08-17 21:55:00,
2013-08-17 15:00:00,66.9,60.3,29.97,SSW,206,7.0,14.0,79,0.00,,,0.00,meteohub,2013-08-17 22:00:00,
2013-08-17 15:05:00,66.4,60.1,29.96,SSW,201,7.0,14.0,80,0.00,,,0.00,meteohub,2013-08-17 22:05:00,
2013-08-17 15:10:00,66.0,60.1,29.96,SSW,208,9.0,13.0,81,0.00,,,0.00,meteohub,2013-08-17 22:10:00,
2013-08-17 15:15:00,65.8,59.9,29.96,SSW,209,9.0,13.0,81,0.00,,,0.00,meteohub,2013-08-17 22:15:00,
2013-08-17 15:20:00,65.5,59.9,29.96,SSW,200,7.0,15.0,82,0.00,,,0.00,meteohub,2013-08-17 22:20:00,
2013-08-17 15:25:00,65.7,60.1,29.96,South,186,11.0,15.0,82,0.00,,,0.00,meteohub,2013-08-17 22:25:00,
2013-08-17 15:30:00,65.8,60.3,29.95,South,183,10.0,16.0,82,0.00,,,0.00,meteohub,2013-08-17 22:30:00,
2013-08-17 15:35:00,65.5,59.9,29.95,SSW,195,9.0,17.0,82,0.00,,,0.00,meteohub,2013-08-17 22:35:00,
2013-08-17 15:40:00,65.5,60.3,29.95,SSW,195,10.0,17.0,83,0.00,,,0.00,meteohub,2013-08-17 22:40:00,
2013-08-17 15:45:00,65.8,60.3,29.95,South,173,9.0,18.0,82,0.00,,,0.00,meteohub,2013-08-17 22:45:00,
2013-08-17 15:50:00,65.8,60.6,29.95,SSE,162,10.0,19.0,83,0.00,,,0.00,meteohub,2013-08-17 22:50:00,
2013-08-17 15:55:00,66.4,60.4,29.95,SSW,210,11.0,19.0,81,0.00,,,0.00,meteohub,2013-08-17 22:55:00,
2013-08-17 16:00:00,67.3,61.2,29.95,South,187,10.0,19.0,81,0.00,,,0.00,meteohub,2013-08-17 23:00:00,
2013-08-17 16:05:00,68.7,61.5,29.95,SSE,168,4.0,16.0,78,0.00,,,0.00,meteohub,2013-08-17 23:05:00,
2013-08-17 16:10:00,69.4,60.8,29.94,South,170,9.0,14.0,74,0.00,,,0.00,meteohub,2013-08-17 23:10:00,
2013-08-17 16:15:00,69.8,61.2,29.94,South,178,10.0,14.0,74,0.00,,,0.00,meteohub,2013-08-17 23:15:00,
2013-08-17 16:20:00,69.4,60.8,29.94,South,170,7.0,14.0,74,0.00,,,0.00,meteohub,2013-08-17 23:20:00,
2013-08-17 16:25:00,69.3,61.7,29.94,South,170,6.0,14.0,77,0.00,,,0.00,meteohub,2013-08-17 23:25:00,
2013-08-17 16:30:00,69.1,61.2,29.94,South,170,6.0,14.0,76,0.00,,,0.00,meteohub,2013-08-17 23:30:00,
2013-08-17 16:35:00,69.4,61.5,29.93,South,185,12.0,13.0,76,0.00,,,0.00,meteohub,2013-08-17 23:35:00,
2013-08-17 16:40:00,69.4,61.2,29.92,SSW,195,12.0,15.0,75,0.00,,,0.00,meteohub,2013-08-17 23:40:00,
2013-08-17 16:45:00,69.6,61.3,29.92,South,191,13.0,17.0,75,0.00,,,0.00,meteohub,2013-08-17 23:45:00,
2013-08-17 16:50:00,69.4,61.5,29.92,SSW,195,7.0,17.0,76,0.00,,,0.00,meteohub,2013-08-17 23:50:00,
2013-08-17 16:55:00,69.8,61.9,29.92,South,189,9.0,17.0,76,0.00,,,0.00,meteohub,2013-08-17 23:55:00,
2013-08-17 17:00:00,69.4,61.9,29.92,South,173,10.0,15.0,77,0.00,,,0.00,meteohub,2013-08-18 00:00:00,
2013-08-17 17:05:00,69.1,61.5,29.92,South,174,14.0,14.0,77,0.00,,,0.00,meteohub,2013-08-18 00:05:00,
2013-08-17 17:10:00,68.0,61.2,29.92,South,170,12.0,16.0,79,0.00,,,0.00,meteohub,2013-08-18 00:10:00,
2013-08-17 17:15:00,67.5,61.2,29.92,South,174,8.0,16.0,80,0.00,,,0.00,meteohub,2013-08-18 00:15:00,
2013-08-17 17:20:00,67.8,61.3,29.92,SSE,163,8.0,16.0,80,0.00,,,0.00,meteohub,2013-08-18 00:20:00,
2013-08-17 17:25:00,68.0,61.5,29.91,SSE,167,7.0,14.0,80,0.00,,,0.00,meteohub,2013-08-18 00:25:00,
2013-08-17 17:30:00,67.8,61.0,29.91,SSW,204,7.0,14.0,79,0.00,,,0.00,meteohub,2013-08-18 00:30:00,
2013-08-17 17:35:00,67.5,61.2,29.92,SW,218,14.0,16.0,80,0.00,,,0.00,meteohub,2013-08-18 00:35:00,
2013-08-17 17:40:00,66.7,60.8,29.91,SSW,198,14.0,17.0,81,0.00,,,0.00,meteohub,2013-08-18 00:40:00,
2013-08-17 17:45:00,67.3,61.2,29.92,South,187,11.0,17.0,81,0.00,,,0.00,meteohub,2013-08-18 00:45:00,
2013-08-17 17:50:00,67.3,61.2,29.92,South,189,10.0,16.0,81,0.00,,,0.00,meteohub,2013-08-18 00:50:00,
2013-08-17 17:55:00,67.1,61.2,29.91,SSW,202,8.0,17.0,81,0.00,,,0.00,meteohub,2013-08-18 00:55:00,
2013-08-17 18:01:00,66.9,61.0,29.92,South,186,9.0,17.0,81,0.00,,,0.00,meteohub,2013-08-18 01:01:00,
2013-08-17 18:06:00,67.5,61.3,29.92,South,187,13.0,17.0,81,0.00,,,0.00,meteohub,2013-08-18 01:06:00,
2013-08-17 18:11:00,67.6,61.2,29.91,South,187,12.0,14.0,80,0.00,,,0.00,meteohub,2013-08-18 01:11:00,
2013-08-17 18:16:00,68.0,61.5,29.91,SSW,201,11.0,15.0,80,0.00,,,0.00,meteohub,2013-08-18 01:16:00,
2013-08-17 18:21:00,67.3,61.2,29.91,SSW,210,11.0,15.0,81,0.00,,,0.00,meteohub,2013-08-18 01:21:00,
2013-08-17 18:26:00,66.4,60.1,29.91,South,189,10.0,15.0,80,0.00,,,0.00,meteohub,2013-08-18 01:26:00,
2013-08-17 18:31:00,66.2,60.6,29.91,South,170,6.0,17.0,82,0.00,,,0.00,meteohub,2013-08-18 01:31:00,
2013-08-17 18:36:00,65.7,60.1,29.91,South,179,14.0,17.0,82,0.00,,,0.00,meteohub,2013-08-18 01:36:00,
2013-08-17 18:41:00,64.9,59.7,29.91,South,178,10.0,16.0,83,0.00,,,0.00,meteohub,2013-08-18 01:41:00,
2013-08-17 18:46:00,64.2,59.4,29.91,South,186,11.0,17.0,84,0.00,,,0.00,meteohub,2013-08-18 01:46:00,
2013-08-17 18:51:00,63.3,59.0,29.91,South,174,15.0,18.0,86,0.00,,,0.00,meteohub,2013-08-18 01:51:00,
2013-08-17 18:56:00,62.8,58.8,29.91,South,172,17.0,22.0,87,0.00,,,0.00,meteohub,2013-08-18 01:56:00,
2013-08-17 19:01:00,62.8,59.2,29.91,South,169,7.0,22.0,88,0.00,,,0.00,meteohub,2013-08-18 02:01:00,
2013-08-17 19:06:00,63.1,59.2,29.91,SSW,203,16.0,22.0,87,0.00,,,0.00,meteohub,2013-08-18 02:06:00,
2013-08-17 19:11:00,63.1,59.2,29.91,SSW,194,15.0,21.0,87,0.00,,,0.00,meteohub,2013-08-18 02:11:00,
2013-08-17 19:16:00,63.3,59.0,29.91,South,177,11.0,18.0,86,0.00,,,0.00,meteohub,2013-08-18 02:16:00,
2013-08-17 19:21:00,63.7,59.4,29.91,South,189,13.0,16.0,86,0.00,,,0.00,meteohub,2013-08-18 02:21:00,
2013-08-17 19:26:00,63.9,59.5,29.91,SSW,207,13.0,15.0,86,0.00,,,0.00,meteohub,2013-08-18 02:26:00,
2013-08-17 19:31:00,63.9,59.5,29.91,South,183,10.0,15.0,86,0.00,,,0.00,meteohub,2013-08-18 02:31:00,
2013-08-17 19:36:00,64.0,59.7,29.91,South,177,9.0,15.0,86,0.00,,,0.00,meteohub,2013-08-18 02:36:00,
2013-08-17 19:41:00,63.9,59.5,29.91,South,185,7.0,16.0,86,0.00,,,0.00,meteohub,2013-08-18 02:41:00,
2013-08-17 19:46:00,63.7,59.7,29.91,South,174,9.0,16.0,87,0.00,,,0.00,meteohub,2013-08-18 02:46:00,
2013-08-17 19:51:00,63.3,59.4,29.91,South,177,9.0,16.0,87,0.00,,,0.00,meteohub,2013-08-18 02:51:00,
2013-08-17 19:56:00,63.0,59.0,29.91,SSW,199,16.0,16.0,87,0.00,,,0.00,meteohub,2013-08-18 02:56:00,
2013-08-17 20:01:00,62.6,59.0,29.91,SSE,164,13.0,16.0,88,0.00,,,0.00,meteohub,2013-08-18 03:01:00,
2013-08-17 20:06:00,62.4,58.8,29.91,SSW,193,9.0,16.0,88,0.00,,,0.00,meteohub,2013-08-18 03:06:00,
2013-08-17 20:11:00,62.2,58.6,29.91,South,183,11.0,17.0,88,0.00,,,0.00,meteohub,2013-08-18 03:11:00,
2013-08-17 20:16:00,62.1,58.5,29.91,South,181,9.0,19.0,88,0.00,,,0.00,meteohub,2013-08-18 03:16:00,
2013-08-17 20:21:00,62.1,58.8,29.91,SSE,156,12.0,19.0,89,0.00,,,0.00,meteohub,2013-08-18 03:21:00,
2013-08-17 20:26:00,62.1,58.8,29.92,South,190,11.0,19.0,89,0.00,,,0.00,meteohub,2013-08-18 03:26:00,
2013-08-17 20:31:00,61.9,58.6,29.92,South,175,11.0,17.0,89,0.00,,,0.00,meteohub,2013-08-18 03:31:00,
2013-08-17 20:36:00,61.9,58.6,29.92,SSW,204,9.0,18.0,89,0.00,,,0.00,meteohub,2013-08-18 03:36:00,
2013-08-17 20:41:00,61.7,58.5,29.92,South,174,11.0,18.0,89,0.00,,,0.00,meteohub,2013-08-18 03:41:00,
2013-08-17 20:46:00,61.5,58.3,29.92,SSW,203,10.0,17.0,89,0.00,,,0.00,meteohub,2013-08-18 03:46:00,
2013-08-17 20:51:00,61.3,58.1,29.92,SSE,162,10.0,19.0,89,0.00,,,0.00,meteohub,2013-08-18 03:51:00,
2013-08-17 20:56:00,61.2,57.9,29.92,South,188,9.0,19.0,89,0.00,,,0.00,meteohub,2013-08-18 03:56:00,
2013-08-17 21:01:00,61.2,58.3,29.92,South,177,11.0,19.0,90,0.00,,,0.00,meteohub,2013-08-18 04:01:00,
2013-08-17 21:02:00,61.2,58.3,29.92,South,183,10.0,19.0,90,0.00,,,0.00,meteohub,2013-08-18 04:02:00,
2013-08-17 21:03:00,61.0,58.1,29.92,SSE,158,6.0,19.0,90,0.00,,,0.00,meteohub,2013-08-18 04:03:00,
2013-08-17 21:09:00,61.2,58.3,29.93,South,178,8.0,18.0,90,0.00,,,0.00,meteohub,2013-08-18 04:09:00,
2013-08-17 21:14:00,61.2,58.3,29.93,SSE,149,11.0,16.0,90,0.00,,,0.00,meteohub,2013-08-18 04:14:00,
2013-08-17 21:19:00,61.0,58.1,29.93,South,169,11.0,18.0,90,0.00,,,0.00,meteohub,2013-08-18 04:19:00,
2013-08-17 21:24:00,60.6,57.7,29.93,South,180,11.0,18.0,90,0.00,,,0.00,meteohub,2013-08-18 04:24:00,
2013-08-17 21:29:00,60.4,57.6,29.93,SSE,166,12.0,17.0,90,0.00,,,0.00,meteohub,2013-08-18 04:29:00,
2013-08-17 21:34:00,60.3,57.6,29.93,South,183,7.0,17.0,91,0.00,,,0.00,meteohub,2013-08-18 04:34:00,
2013-08-17 21:39:00,60.3,57.6,29.93,South,176,11.0,15.0,91,0.00,,,0.00,meteohub,2013-08-18 04:39:00,
2013-08-17 21:44:00,60.3,57.6,29.93,SSE,168,13.0,15.0,91,0.00,,,0.00,meteohub,2013-08-18 04:44:00,
2013-08-17 21:49:00,60.3,57.6,29.93,South,178,12.0,15.0,91,0.00,,,0.00,meteohub,2013-08-18 04:49:00,
2013-08-17 21:54:00,60.4,57.7,29.93,SSE,166,15.0,17.0,91,0.00,,,0.00,meteohub,2013-08-18 04:54:00,
2013-08-17 21:59:00,60.4,57.7,29.93,SSE,158,8.0,17.0,91,0.00,,,0.00,meteohub,2013-08-18 04:59:00,
2013-08-17 22:04:00,60.4,57.7,29.93,SSE,160,9.0,17.0,91,0.00,,,0.00,meteohub,2013-08-18 05:04:00,
2013-08-17 22:09:00,60.4,57.7,29.93,SSE,162,14.0,17.0,91,0.00,,,0.00,meteohub,2013-08-18 05:09:00,
2013-08-17 22:14:00,60.4,57.7,29.94,SSE,154,8.0,15.0,91,0.00,,,0.00,meteohub,2013-08-18 05:14:00,
2013-08-17 22:19:00,60.3,57.6,29.94,South,174,13.0,17.0,91,0.00,,,0.00,meteohub,2013-08-18 05:19:00,
2013-08-17 22:24:00,60.3,57.6,29.94,South,181,14.0,17.0,91,0.00,,,0.00,meteohub,2013-08-18 05:24:00,
2013-08-17 22:29:00,60.1,57.4,29.93,South,180,10.0,17.0,91,0.00,,,0.00,meteohub,2013-08-18 05:29:00,
2013-08-17 22:34:00,59.9,57.2,29.93,South,182,5.0,17.0,91,0.00,,,0.00,meteohub,2013-08-18 05:34:00,
2013-08-17 22:39:00,59.7,57.0,29.94,South,177,10.0,17.0,91,0.00,,,0.00,meteohub,2013-08-18 05:39:00,
2013-08-17 22:44:00,59.7,57.0,29.93,South,180,6.0,17.0,91,0.00,,,0.00,meteohub,2013-08-18 05:44:00,
2013-08-17 22:49:00,59.5,56.8,29.93,SSW,195,10.0,17.0,91,0.00,,,0.00,meteohub,2013-08-18 05:49:00,
2013-08-17 22:54:00,59.5,56.8,29.93,South,187,7.0,17.0,91,0.00,,,0.00,meteohub,2013-08-18 05:54:00,
2013-08-17 22:59:00,59.5,57.2,29.93,South,183,12.0,16.0,92,0.00,,,0.00,meteohub,2013-08-18 05:59:00,
2013-08-17 23:04:00,59.7,57.4,29.93,SSE,156,9.0,16.0,92,0.00,,,0.00,meteohub,2013-08-18 06:04:00,
2013-08-17 23:09:00,59.7,57.0,29.93,South,187,4.0,14.0,91,0.00,,,0.00,meteohub,2013-08-18 06:09:00,
2013-08-17 23:14:00,59.5,56.8,29.92,South,182,6.0,16.0,91,0.00,,,0.00,meteohub,2013-08-18 06:14:00,
2013-08-17 23:19:00,59.4,56.7,29.92,South,179,7.0,16.0,91,0.00,,,0.00,meteohub,2013-08-18 06:19:00,
2013-08-17 23:24:00,59.4,57.0,29.92,South,179,6.0,16.0,92,0.00,,,0.00,meteohub,2013-08-18 06:24:00,
2013-08-17 23:29:00,59.7,57.4,29.92,SSE,161,9.0,12.0,92,0.00,,,0.00,meteohub,2013-08-18 06:29:00,
2013-08-17 23:34:00,59.9,57.6,29.92,South,184,12.0,12.0,92,0.00,,,0.00,meteohub,2013-08-18 06:34:00,
2013-08-17 23:39:00,60.1,57.4,29.92,SSE,156,8.0,16.0,91,0.00,,,0.00,meteohub,2013-08-18 06:39:00,
2013-08-17 23:44:00,60.1,57.4,29.92,SSE,158,12.0,16.0,91,0.00,,,0.00,meteohub,2013-08-18 06:44:00,
2013-08-17 23:49:00,59.9,57.2,29.92,South,188,10.0,16.0,91,0.00,,,0.00,meteohub,2013-08-18 06:49:00,
2013-08-17 23:54:00,59.7,57.0,29.92,SSE,157,10.0,15.0,91,0.00,,,0.00,meteohub,2013-08-18 06:54:00,
2013-08-17 23:59:00,59.5,56.8,29.92,South,182,8.0,15.0,91,0.00,,,0.00,meteohub,2013-08-18 06:59:00,